sensor_id;sensor_type;location;lat;lon;timestamp;P1;durP1;ratioP1;P2;durP2;ratioP2
24137;SDS011;17947;50.672;6.076;2022-11-04T00:01:13;1.58;;;0.82;;
24137;SDS011;17947;50.672;6.076;2022-11-04T00:03:39;1.55;;;0.73;;
24137;SDS011;17947;50.672;6.076;2022-11-04T00:06:05;0.90;;;0.80;;
24137;SDS011;17947;50.672;6.076;2022-11-04T00:08:31;0.65;;;0.60;;
24137;SDS011;17947;50.672;6.076;2022-11-04T00:10:57;0.98;;;0.70;;
24137;SDS011;17947;50.672;6.076;2022-11-04T00:13:43;0.70;;;0.70;;
24137;SDS011;17947;50.672;6.076;2022-11-04T00:16:09;0.80;;;0.70;;
24137;SDS011;17947;50.672;6.076;2022-11-04T00:18:54;0.60;;;0.50;;
24137;SDS011;17947;50.672;6.076;2022-11-04T00:21:20;0.88;;;0.68;;
24137;SDS011;17947;50.672;6.076;2022-11-04T00:24:05;0.85;;;0.60;;
24137;SDS011;17947;50.672;6.076;2022-11-04T00:26:50;0.75;;;0.60;;
24137;SDS011;17947;50.672;6.076;2022-11-04T00:29:35;0.70;;;0.70;;
24137;SDS011;17947;50.672;6.076;2022-11-04T00:32:01;0.82;;;0.60;;
24137;SDS011;17947;50.672;6.076;2022-11-04T00:34:45;0.82;;;0.60;;
24137;SDS011;17947;50.672;6.076;2022-11-04T00:37:11;0.63;;;0.60;;
24137;SDS011;17947;50.672;6.076;2022-11-04T00:39:37;0.50;;;0.50;;
24137;SDS011;17947;50.672;6.076;2022-11-04T00:42:03;0.60;;;0.60;;
24137;SDS011;17947;50.672;6.076;2022-11-04T00:44:29;0.68;;;0.57;;
24137;SDS011;17947;50.672;6.076;2022-11-04T00:46:55;0.70;;;0.50;;
24137;SDS011;17947;50.672;6.076;2022-11-04T00:49:21;0.82;;;0.47;;
24137;SDS011;17947;50.672;6.076;2022-11-04T00:51:47;0.55;;;0.55;;
24137;SDS011;17947;50.672;6.076;2022-11-04T00:54:13;1.15;;;0.68;;
24137;SDS011;17947;50.672;6.076;2022-11-04T00:56:39;0.70;;;0.60;;
24137;SDS011;17947;50.672;6.076;2022-11-04T00:59:06;0.98;;;0.60;;
24137;SDS011;17947;50.672;6.076;2022-11-04T01:01:32;0.77;;;0.60;;
24137;SDS011;17947;50.672;6.076;2022-11-04T01:03:58;0.50;;;0.50;;
24137;SDS011;17947;50.672;6.076;2022-11-04T01:06:24;0.60;;;0.50;;
24137;SDS011;17947;50.672;6.076;2022-11-04T01:09:05;0.90;;;0.50;;
24137;SDS011;17947;50.672;6.076;2022-11-04T01:11:32;0.52;;;0.52;;
24137;SDS011;17947;50.672;6.076;2022-11-04T01:13:58;0.75;;;0.50;;
24137;SDS011;17947;50.672;6.076;2022-11-04T01:16:24;0.43;;;0.43;;
24137;SDS011;17947;50.672;6.076;2022-11-04T01:18:50;0.40;;;0.40;;
24137;SDS011;17947;50.672;6.076;2022-11-04T01:21:17;1.33;;;0.68;;
24137;SDS011;17947;50.672;6.076;2022-11-04T01:23:43;0.52;;;0.47;;
24137;SDS011;17947;50.672;6.076;2022-11-04T01:26:13;0.65;;;0.60;;
24137;SDS011;17947;50.672;6.076;2022-11-04T01:28:40;0.40;;;0.40;;
24137;SDS011;17947;50.672;6.076;2022-11-04T01:31:06;0.70;;;0.60;;
24137;SDS011;17947;50.672;6.076;2022-11-04T01:33:32;0.93;;;0.50;;
24137;SDS011;17947;50.672;6.076;2022-11-04T01:35:59;0.60;;;0.50;;
24137;SDS011;17947;50.672;6.076;2022-11-04T01:38:25;0.60;;;0.50;;
24137;SDS011;17947;50.672;6.076;2022-11-04T01:40:51;0.50;;;0.50;;
24137;SDS011;17947;50.672;6.076;2022-11-04T01:43:18;0.50;;;0.50;;
24137;SDS011;17947;50.672;6.076;2022-11-04T01:45:45;1.30;;;0.50;;
24137;SDS011;17947;50.672;6.076;2022-11-04T01:48:15;0.43;;;0.43;;
24137;SDS011;17947;50.672;6.076;2022-11-04T01:50:42;1.20;;;0.55;;
24137;SDS011;17947;50.672;6.076;2022-11-04T01:53:10;1.17;;;0.50;;
24137;SDS011;17947;50.672;6.076;2022-11-04T01:55:45;0.85;;;0.70;;
24137;SDS011;17947;50.672;6.076;2022-11-04T01:58:14;0.50;;;0.50;;
24137;SDS011;17947;50.672;6.076;2022-11-04T02:00:41;0.52;;;0.50;;
24137;SDS011;17947;50.672;6.076;2022-11-04T02:05:33;0.82;;;0.63;;
24137;SDS011;17947;50.672;6.076;2022-11-04T02:08:01;0.63;;;0.50;;
24137;SDS011;17947;50.672;6.076;2022-11-04T02:10:29;0.40;;;0.40;;
24137;SDS011;17947;50.672;6.076;2022-11-04T02:12:56;0.52;;;0.50;;
24137;SDS011;17947;50.672;6.076;2022-11-04T02:15:29;1.38;;;0.60;;
24137;SDS011;17947;50.672;6.076;2022-11-04T02:18:04;0.77;;;0.50;;
24137;SDS011;17947;50.672;6.076;2022-11-04T02:28:20;0.93;;;0.50;;
24137;SDS011;17947;50.672;6.076;2022-11-04T02:33:39;1.20;;;0.50;;
24137;SDS011;17947;50.672;6.076;2022-11-04T02:46:46;0.57;;;0.57;;
24137;SDS011;17947;50.672;6.076;2022-11-04T02:49:19;0.43;;;0.43;;
24137;SDS011;17947;50.672;6.076;2022-11-04T02:51:58;0.73;;;0.32;;
24137;SDS011;17947;50.672;6.076;2022-11-04T02:54:36;1.33;;;0.50;;
24137;SDS011;17947;50.672;6.076;2022-11-04T02:57:04;0.52;;;0.50;;
24137;SDS011;17947;50.672;6.076;2022-11-04T03:02:02;0.77;;;0.50;;
24137;SDS011;17947;50.672;6.076;2022-11-04T03:04:30;0.52;;;0.50;;
24137;SDS011;17947;50.672;6.076;2022-11-04T03:06:58;1.27;;;0.50;;
24137;SDS011;17947;50.672;6.076;2022-11-04T03:09:25;0.63;;;0.40;;
24137;SDS011;17947;50.672;6.076;2022-11-04T03:11:54;0.40;;;0.40;;
24137;SDS011;17947;50.672;6.076;2022-11-04T03:14:26;0.68;;;0.40;;
24137;SDS011;17947;50.672;6.076;2022-11-04T03:16:55;0.43;;;0.40;;
24137;SDS011;17947;50.672;6.076;2022-11-04T03:19:28;0.38;;;0.38;;
24137;SDS011;17947;50.672;6.076;2022-11-04T03:22:00;0.40;;;0.38;;
24137;SDS011;17947;50.672;6.076;2022-11-04T03:24:28;0.50;;;0.40;;
24137;SDS011;17947;50.672;6.076;2022-11-04T03:26:57;0.55;;;0.40;;
24137;SDS011;17947;50.672;6.076;2022-11-04T03:29:32;0.50;;;0.50;;
24137;SDS011;17947;50.672;6.076;2022-11-04T03:32:06;0.40;;;0.40;;
24137;SDS011;17947;50.672;6.076;2022-11-04T03:34:35;0.32;;;0.32;;
24137;SDS011;17947;50.672;6.076;2022-11-04T03:37:01;0.68;;;0.50;;
24137;SDS011;17947;50.672;6.076;2022-11-04T03:39:27;1.75;;;0.40;;
24137;SDS011;17947;50.672;6.076;2022-11-04T03:41:54;0.77;;;0.43;;
24137;SDS011;17947;50.672;6.076;2022-11-04T03:44:22;0.73;;;0.60;;
24137;SDS011;17947;50.672;6.076;2022-11-04T03:46:48;0.82;;;0.57;;
24137;SDS011;17947;50.672;6.076;2022-11-04T03:49:15;1.52;;;0.60;;
24137;SDS011;17947;50.672;6.076;2022-11-04T03:51:41;0.70;;;0.45;;
24137;SDS011;17947;50.672;6.076;2022-11-04T03:54:07;0.35;;;0.30;;
24137;SDS011;17947;50.672;6.076;2022-11-04T03:56:46;0.60;;;0.50;;
24137;SDS011;17947;50.672;6.076;2022-11-04T04:06:40;0.40;;;0.40;;
24137;SDS011;17947;50.672;6.076;2022-11-04T04:09:11;1.00;;;0.60;;
24137;SDS011;17947;50.672;6.076;2022-11-04T04:11:48;0.93;;;0.60;;
24137;SDS011;17947;50.672;6.076;2022-11-04T04:14:18;0.50;;;0.40;;
24137;SDS011;17947;50.672;6.076;2022-11-04T04:19:31;0.70;;;0.63;;
24137;SDS011;17947;50.672;6.076;2022-11-04T04:22:12;0.82;;;0.47;;
24137;SDS011;17947;50.672;6.076;2022-11-04T04:24:41;0.52;;;0.47;;
24137;SDS011;17947;50.672;6.076;2022-11-04T04:27:28;0.50;;;0.47;;
24137;SDS011;17947;50.672;6.076;2022-11-04T04:29:54;0.47;;;0.40;;
24137;SDS011;17947;50.672;6.076;2022-11-04T04:32:21;0.82;;;0.40;;
24137;SDS011;17947;50.672;6.076;2022-11-04T04:34:49;0.40;;;0.40;;
24137;SDS011;17947;50.672;6.076;2022-11-04T04:37:19;0.80;;;0.50;;
24137;SDS011;17947;50.672;6.076;2022-11-04T04:39:51;0.63;;;0.40;;
24137;SDS011;17947;50.672;6.076;2022-11-04T04:42:36;0.90;;;0.40;;
24137;SDS011;17947;50.672;6.076;2022-11-04T04:45:25;0.60;;;0.60;;
24137;SDS011;17947;50.672;6.076;2022-11-04T04:47:53;0.40;;;0.40;;
24137;SDS011;17947;50.672;6.076;2022-11-04T04:50:20;0.50;;;0.50;;
24137;SDS011;17947;50.672;6.076;2022-11-04T04:52:51;0.90;;;0.50;;
24137;SDS011;17947;50.672;6.076;2022-11-04T04:55:18;1.40;;;0.40;;
24137;SDS011;17947;50.672;6.076;2022-11-04T04:57:44;0.68;;;0.50;;
24137;SDS011;17947;50.672;6.076;2022-11-04T05:00:14;0.50;;;0.50;;
24137;SDS011;17947;50.672;6.076;2022-11-04T05:02:41;0.45;;;0.43;;
24137;SDS011;17947;50.672;6.076;2022-11-04T05:05:07;0.93;;;0.50;;
24137;SDS011;17947;50.672;6.076;2022-11-04T05:07:33;0.60;;;0.50;;
24137;SDS011;17947;50.672;6.076;2022-11-04T05:09:59;0.43;;;0.40;;
24137;SDS011;17947;50.672;6.076;2022-11-04T05:12:25;0.85;;;0.50;;
24137;SDS011;17947;50.672;6.076;2022-11-04T05:15:11;0.40;;;0.40;;
24137;SDS011;17947;50.672;6.076;2022-11-04T05:17:37;0.55;;;0.40;;
24137;SDS011;17947;50.672;6.076;2022-11-04T05:20:03;0.50;;;0.40;;
24137;SDS011;17947;50.672;6.076;2022-11-04T05:22:29;0.47;;;0.43;;
24137;SDS011;17947;50.672;6.076;2022-11-04T05:24:55;0.60;;;0.40;;
24137;SDS011;17947;50.672;6.076;2022-11-04T05:27:21;0.57;;;0.45;;
24137;SDS011;17947;50.672;6.076;2022-11-04T05:29:47;1.15;;;0.60;;
24137;SDS011;17947;50.672;6.076;2022-11-04T05:32:13;0.40;;;0.40;;
24137;SDS011;17947;50.672;6.076;2022-11-04T05:34:39;0.80;;;0.50;;
24137;SDS011;17947;50.672;6.076;2022-11-04T05:37:06;0.65;;;0.60;;
24137;SDS011;17947;50.672;6.076;2022-11-04T05:39:31;0.65;;;0.50;;
24137;SDS011;17947;50.672;6.076;2022-11-04T05:41:57;1.02;;;0.50;;
24137;SDS011;17947;50.672;6.076;2022-11-04T05:44:25;0.52;;;0.40;;
24137;SDS011;17947;50.672;6.076;2022-11-04T05:46:51;0.40;;;0.40;;
24137;SDS011;17947;50.672;6.076;2022-11-04T05:49:17;0.40;;;0.40;;
24137;SDS011;17947;50.672;6.076;2022-11-04T05:51:43;0.47;;;0.30;;
24137;SDS011;17947;50.672;6.076;2022-11-04T05:54:09;0.30;;;0.30;;
24137;SDS011;17947;50.672;6.076;2022-11-04T05:56:35;0.40;;;0.40;;
24137;SDS011;17947;50.672;6.076;2022-11-04T05:59:01;0.52;;;0.47;;
24137;SDS011;17947;50.672;6.076;2022-11-04T06:01:34;0.40;;;0.40;;
24137;SDS011;17947;50.672;6.076;2022-11-04T06:04:00;0.65;;;0.45;;
24137;SDS011;17947;50.672;6.076;2022-11-04T06:06:27;0.45;;;0.45;;
24137;SDS011;17947;50.672;6.076;2022-11-04T06:08:54;0.40;;;0.40;;
24137;SDS011;17947;50.672;6.076;2022-11-04T06:11:20;0.57;;;0.40;;
24137;SDS011;17947;50.672;6.076;2022-11-04T06:13:47;1.40;;;0.57;;
24137;SDS011;17947;50.672;6.076;2022-11-04T06:16:13;0.73;;;0.50;;
24137;SDS011;17947;50.672;6.076;2022-11-04T06:18:39;0.70;;;0.40;;
24137;SDS011;17947;50.672;6.076;2022-11-04T06:21:06;0.47;;;0.47;;
24137;SDS011;17947;50.672;6.076;2022-11-04T06:23:33;0.50;;;0.40;;
24137;SDS011;17947;50.672;6.076;2022-11-04T06:25:59;0.45;;;0.40;;
24137;SDS011;17947;50.672;6.076;2022-11-04T06:28:25;0.40;;;0.40;;
24137;SDS011;17947;50.672;6.076;2022-11-04T06:30:51;0.40;;;0.30;;
24137;SDS011;17947;50.672;6.076;2022-11-04T06:33:17;0.35;;;0.30;;
24137;SDS011;17947;50.672;6.076;2022-11-04T06:35:43;0.38;;;0.38;;
24137;SDS011;17947;50.672;6.076;2022-11-04T06:38:09;0.40;;;0.40;;
24137;SDS011;17947;50.672;6.076;2022-11-04T06:40:35;0.47;;;0.47;;
24137;SDS011;17947;50.672;6.076;2022-11-04T06:43:01;1.30;;;0.45;;
24137;SDS011;17947;50.672;6.076;2022-11-04T06:45:27;1.02;;;0.50;;
24137;SDS011;17947;50.672;6.076;2022-11-04T06:47:53;0.40;;;0.40;;
24137;SDS011;17947;50.672;6.076;2022-11-04T06:50:19;0.63;;;0.50;;
24137;SDS011;17947;50.672;6.076;2022-11-04T06:52:45;0.40;;;0.40;;
24137;SDS011;17947;50.672;6.076;2022-11-04T06:55:11;0.40;;;0.40;;
24137;SDS011;17947;50.672;6.076;2022-11-04T06:57:37;0.80;;;0.50;;
24137;SDS011;17947;50.672;6.076;2022-11-04T07:00:03;0.40;;;0.40;;
24137;SDS011;17947;50.672;6.076;2022-11-04T07:02:29;0.90;;;0.50;;
24137;SDS011;17947;50.672;6.076;2022-11-04T07:04:55;0.35;;;0.35;;
24137;SDS011;17947;50.672;6.076;2022-11-04T07:07:21;0.65;;;0.40;;
24137;SDS011;17947;50.672;6.076;2022-11-04T07:09:47;1.05;;;0.50;;
24137;SDS011;17947;50.672;6.076;2022-11-04T07:12:13;0.98;;;0.55;;
24137;SDS011;17947;50.672;6.076;2022-11-04T07:14:39;1.30;;;0.65;;
24137;SDS011;17947;50.672;6.076;2022-11-04T07:17:05;0.68;;;0.52;;
24137;SDS011;17947;50.672;6.076;2022-11-04T07:19:31;1.05;;;0.75;;
24137;SDS011;17947;50.672;6.076;2022-11-04T07:21:57;1.30;;;0.60;;
24137;SDS011;17947;50.672;6.076;2022-11-04T07:24:23;1.80;;;0.65;;
24137;SDS011;17947;50.672;6.076;2022-11-04T07:26:49;0.70;;;0.50;;
24137;SDS011;17947;50.672;6.076;2022-11-04T07:29:15;3.15;;;0.73;;
24137;SDS011;17947;50.672;6.076;2022-11-04T07:31:42;1.95;;;0.73;;
24137;SDS011;17947;50.672;6.076;2022-11-04T07:34:08;1.92;;;0.80;;
24137;SDS011;17947;50.672;6.076;2022-11-04T07:36:34;4.70;;;0.93;;
24137;SDS011;17947;50.672;6.076;2022-11-04T07:39:00;2.33;;;0.80;;
24137;SDS011;17947;50.672;6.076;2022-11-04T07:41:26;1.38;;;0.80;;
24137;SDS011;17947;50.672;6.076;2022-11-04T07:43:52;1.30;;;0.60;;
24137;SDS011;17947;50.672;6.076;2022-11-04T07:46:19;1.65;;;0.90;;
24137;SDS011;17947;50.672;6.076;2022-11-04T07:48:45;0.90;;;0.70;;
24137;SDS011;17947;50.672;6.076;2022-11-04T07:51:12;3.85;;;0.98;;
24137;SDS011;17947;50.672;6.076;2022-11-04T07:53:40;2.80;;;0.93;;
24137;SDS011;17947;50.672;6.076;2022-11-04T07:56:07;1.02;;;0.82;;
24137;SDS011;17947;50.672;6.076;2022-11-04T07:58:37;2.63;;;1.05;;
24137;SDS011;17947;50.672;6.076;2022-11-04T08:01:08;1.35;;;0.90;;
24137;SDS011;17947;50.672;6.076;2022-11-04T08:03:34;1.58;;;1.00;;
24137;SDS011;17947;50.672;6.076;2022-11-04T08:06:02;2.40;;;0.80;;
24137;SDS011;17947;50.672;6.076;2022-11-04T08:08:28;1.25;;;0.80;;
24137;SDS011;17947;50.672;6.076;2022-11-04T08:10:57;1.65;;;0.77;;
24137;SDS011;17947;50.672;6.076;2022-11-04T08:13:27;2.97;;;0.90;;
24137;SDS011;17947;50.672;6.076;2022-11-04T08:15:53;1.73;;;0.70;;
24137;SDS011;17947;50.672;6.076;2022-11-04T08:18:19;1.52;;;0.70;;
24137;SDS011;17947;50.672;6.076;2022-11-04T08:20:46;1.75;;;0.90;;
24137;SDS011;17947;50.672;6.076;2022-11-04T08:23:14;2.38;;;0.68;;
24137;SDS011;17947;50.672;6.076;2022-11-04T08:25:40;1.08;;;0.70;;
24137;SDS011;17947;50.672;6.076;2022-11-04T08:28:06;2.70;;;0.93;;
24137;SDS011;17947;50.672;6.076;2022-11-04T08:30:32;1.98;;;0.70;;
24137;SDS011;17947;50.672;6.076;2022-11-04T08:32:58;0.93;;;0.60;;
24137;SDS011;17947;50.672;6.076;2022-11-04T08:35:24;1.52;;;0.63;;
24137;SDS011;17947;50.672;6.076;2022-11-04T08:37:50;1.63;;;0.70;;
24137;SDS011;17947;50.672;6.076;2022-11-04T08:40:16;1.05;;;0.73;;
24137;SDS011;17947;50.672;6.076;2022-11-04T08:42:42;0.70;;;0.60;;
24137;SDS011;17947;50.672;6.076;2022-11-04T08:45:08;1.65;;;0.70;;
24137;SDS011;17947;50.672;6.076;2022-11-04T08:47:34;1.17;;;0.60;;
24137;SDS011;17947;50.672;6.076;2022-11-04T08:50:00;1.58;;;0.80;;
24137;SDS011;17947;50.672;6.076;2022-11-04T08:52:26;1.42;;;0.70;;
24137;SDS011;17947;50.672;6.076;2022-11-04T08:54:53;0.77;;;0.52;;
24137;SDS011;17947;50.672;6.076;2022-11-04T08:57:19;2.78;;;0.60;;
24137;SDS011;17947;50.672;6.076;2022-11-04T08:59:45;3.03;;;0.73;;
24137;SDS011;17947;50.672;6.076;2022-11-04T09:02:12;0.75;;;0.70;;
24137;SDS011;17947;50.672;6.076;2022-11-04T09:04:39;1.10;;;0.70;;
24137;SDS011;17947;50.672;6.076;2022-11-04T09:07:05;1.88;;;0.70;;
24137;SDS011;17947;50.672;6.076;2022-11-04T09:09:31;1.15;;;0.68;;
24137;SDS011;17947;50.672;6.076;2022-11-04T09:11:57;1.23;;;0.55;;
24137;SDS011;17947;50.672;6.076;2022-11-04T09:14:23;0.47;;;0.40;;
24137;SDS011;17947;50.672;6.076;2022-11-04T09:16:49;2.25;;;0.77;;
24137;SDS011;17947;50.672;6.076;2022-11-04T09:19:15;1.15;;;0.63;;
24137;SDS011;17947;50.672;6.076;2022-11-04T09:21:41;1.23;;;0.63;;
24137;SDS011;17947;50.672;6.076;2022-11-04T09:24:07;2.30;;;0.60;;
24137;SDS011;17947;50.672;6.076;2022-11-04T09:26:35;1.42;;;0.68;;
24137;SDS011;17947;50.672;6.076;2022-11-04T09:29:01;0.63;;;0.50;;
24137;SDS011;17947;50.672;6.076;2022-11-04T09:31:28;1.42;;;0.73;;
24137;SDS011;17947;50.672;6.076;2022-11-04T09:33:54;1.38;;;0.70;;
24137;SDS011;17947;50.672;6.076;2022-11-04T09:36:21;0.80;;;0.70;;
24137;SDS011;17947;50.672;6.076;2022-11-04T09:38:47;0.47;;;0.47;;
24137;SDS011;17947;50.672;6.076;2022-11-04T09:46:23;1.25;;;0.70;;
24137;SDS011;17947;50.672;6.076;2022-11-04T09:48:50;0.55;;;0.45;;
24137;SDS011;17947;50.672;6.076;2022-11-04T09:51:19;1.05;;;0.60;;
24137;SDS011;17947;50.672;6.076;2022-11-04T09:53:47;1.65;;;0.80;;
24137;SDS011;17947;50.672;6.076;2022-11-04T09:56:33;0.65;;;0.50;;
24137;SDS011;17947;50.672;6.076;2022-11-04T09:59:01;0.88;;;0.50;;
24137;SDS011;17947;50.672;6.076;2022-11-04T10:01:30;0.55;;;0.55;;
24137;SDS011;17947;50.672;6.076;2022-11-04T10:04:04;0.93;;;0.60;;
24137;SDS011;17947;50.672;6.076;2022-11-04T10:09:12;0.70;;;0.47;;
24137;SDS011;17947;50.672;6.076;2022-11-04T10:16:51;1.52;;;0.52;;
24137;SDS011;17947;50.672;6.076;2022-11-04T10:26:44;0.60;;;0.57;;
24137;SDS011;17947;50.672;6.076;2022-11-04T10:29:13;0.65;;;0.50;;
24137;SDS011;17947;50.672;6.076;2022-11-04T10:31:39;1.05;;;0.50;;
24137;SDS011;17947;50.672;6.076;2022-11-04T10:34:30;0.65;;;0.43;;
24137;SDS011;17947;50.672;6.076;2022-11-04T10:36:52;0.68;;;0.60;;
24137;SDS011;17947;50.672;6.076;2022-11-04T10:39:26;0.70;;;0.52;;
24137;SDS011;17947;50.672;6.076;2022-11-04T10:41:53;0.82;;;0.40;;
24137;SDS011;17947;50.672;6.076;2022-11-04T10:44:53;0.60;;;0.60;;
24137;SDS011;17947;50.672;6.076;2022-11-04T10:52:09;0.95;;;0.45;;
24137;SDS011;17947;50.672;6.076;2022-11-04T10:54:40;0.55;;;0.50;;
24137;SDS011;17947;50.672;6.076;2022-11-04T10:57:07;1.02;;;0.52;;
24137;SDS011;17947;50.672;6.076;2022-11-04T11:07:39;0.88;;;0.60;;
24137;SDS011;17947;50.672;6.076;2022-11-04T11:10:14;0.63;;;0.63;;
24137;SDS011;17947;50.672;6.076;2022-11-04T11:12:41;0.80;;;0.55;;
24137;SDS011;17947;50.672;6.076;2022-11-04T11:15:25;1.45;;;0.50;;
24137;SDS011;17947;50.672;6.076;2022-11-04T11:18:16;0.50;;;0.50;;
24137;SDS011;17947;50.672;6.076;2022-11-04T11:20:46;0.43;;;0.43;;
24137;SDS011;17947;50.672;6.076;2022-11-04T11:25:58;0.70;;;0.50;;
24137;SDS011;17947;50.672;6.076;2022-11-04T11:28:24;0.38;;;0.38;;
24137;SDS011;17947;50.672;6.076;2022-11-04T11:33:17;1.17;;;0.57;;
24137;SDS011;17947;50.672;6.076;2022-11-04T11:35:47;1.88;;;0.50;;
24137;SDS011;17947;50.672;6.076;2022-11-04T11:38:16;1.02;;;0.43;;
24137;SDS011;17947;50.672;6.076;2022-11-04T11:40:43;0.90;;;0.65;;
24137;SDS011;17947;50.672;6.076;2022-11-04T11:43:27;0.52;;;0.50;;
24137;SDS011;17947;50.672;6.076;2022-11-04T11:45:54;0.40;;;0.40;;
24137;SDS011;17947;50.672;6.076;2022-11-04T11:48:30;2.85;;;0.60;;
24137;SDS011;17947;50.672;6.076;2022-11-04T11:50:57;0.50;;;0.50;;
24137;SDS011;17947;50.672;6.076;2022-11-04T11:53:24;0.57;;;0.50;;
24137;SDS011;17947;50.672;6.076;2022-11-04T11:55:57;0.47;;;0.40;;
24137;SDS011;17947;50.672;6.076;2022-11-04T11:58:28;1.50;;;0.68;;
24137;SDS011;17947;50.672;6.076;2022-11-04T12:03:37;0.73;;;0.60;;
24137;SDS011;17947;50.672;6.076;2022-11-04T12:11:15;0.75;;;0.60;;
24137;SDS011;17947;50.672;6.076;2022-11-04T12:13:47;0.55;;;0.55;;
24137;SDS011;17947;50.672;6.076;2022-11-04T12:16:20;1.75;;;0.65;;
24137;SDS011;17947;50.672;6.076;2022-11-04T12:21:14;1.23;;;0.60;;
24137;SDS011;17947;50.672;6.076;2022-11-04T12:23:48;1.02;;;0.80;;
24137;SDS011;17947;50.672;6.076;2022-11-04T12:26:29;3.03;;;0.93;;
24137;SDS011;17947;50.672;6.076;2022-11-04T12:31:58;0.80;;;0.57;;
24137;SDS011;17947;50.672;6.076;2022-11-04T12:37:19;0.88;;;0.60;;
24137;SDS011;17947;50.672;6.076;2022-11-04T12:42:54;0.90;;;0.70;;
24137;SDS011;17947;50.672;6.076;2022-11-04T12:45:31;1.85;;;0.60;;
24137;SDS011;17947;50.672;6.076;2022-11-04T12:48:00;1.08;;;0.50;;
24137;SDS011;17947;50.672;6.076;2022-11-04T12:55:31;1.05;;;0.60;;
24137;SDS011;17947;50.672;6.076;2022-11-04T13:00:29;1.77;;;0.68;;
24137;SDS011;17947;50.672;6.076;2022-11-04T13:10:39;2.03;;;0.60;;
24137;SDS011;17947;50.672;6.076;2022-11-04T13:13:07;0.55;;;0.50;;
24137;SDS011;17947;50.672;6.076;2022-11-04T13:15:39;1.15;;;0.70;;
24137;SDS011;17947;50.672;6.076;2022-11-04T13:18:06;1.40;;;0.80;;
24137;SDS011;17947;50.672;6.076;2022-11-04T13:20:57;1.33;;;0.60;;
24137;SDS011;17947;50.672;6.076;2022-11-04T13:23:23;1.00;;;0.65;;
24137;SDS011;17947;50.672;6.076;2022-11-04T13:25:51;1.00;;;0.70;;
24137;SDS011;17947;50.672;6.076;2022-11-04T13:28:18;2.25;;;0.77;;
24137;SDS011;17947;50.672;6.076;2022-11-04T13:33:34;1.15;;;0.90;;
24137;SDS011;17947;50.672;6.076;2022-11-04T13:36:11;2.28;;;0.90;;
24137;SDS011;17947;50.672;6.076;2022-11-04T13:38:42;2.25;;;1.00;;
24137;SDS011;17947;50.672;6.076;2022-11-04T13:41:19;1.27;;;0.80;;
24137;SDS011;17947;50.672;6.076;2022-11-04T13:43:52;1.45;;;0.90;;
24137;SDS011;17947;50.672;6.076;2022-11-04T13:46:22;5.07;;;1.67;;
24137;SDS011;17947;50.672;6.076;2022-11-04T13:51:21;2.92;;;1.10;;
24137;SDS011;17947;50.672;6.076;2022-11-04T13:53:54;0.70;;;0.70;;
24137;SDS011;17947;50.672;6.076;2022-11-04T13:59:03;2.33;;;1.25;;
24137;SDS011;17947;50.672;6.076;2022-11-04T14:01:31;1.83;;;1.10;;
24137;SDS011;17947;50.672;6.076;2022-11-04T14:04:02;2.97;;;1.38;;
24137;SDS011;17947;50.672;6.076;2022-11-04T14:14:50;3.42;;;1.30;;
24137;SDS011;17947;50.672;6.076;2022-11-04T14:24:56;3.50;;;1.30;;
24137;SDS011;17947;50.672;6.076;2022-11-04T14:27:30;3.20;;;1.40;;
24137;SDS011;17947;50.672;6.076;2022-11-04T14:29:56;2.35;;;1.52;;
24137;SDS011;17947;50.672;6.076;2022-11-04T14:32:28;2.97;;;1.48;;
24137;SDS011;17947;50.672;6.076;2022-11-04T14:34:56;2.58;;;1.50;;
24137;SDS011;17947;50.672;6.076;2022-11-04T14:37:23;3.65;;;1.48;;
24137;SDS011;17947;50.672;6.076;2022-11-04T14:39:53;3.60;;;1.63;;
24137;SDS011;17947;50.672;6.076;2022-11-04T14:42:39;3.20;;;1.77;;
24137;SDS011;17947;50.672;6.076;2022-11-04T14:45:10;2.42;;;1.30;;
24137;SDS011;17947;50.672;6.076;2022-11-04T14:47:40;1.50;;;1.30;;
24137;SDS011;17947;50.672;6.076;2022-11-04T14:50:07;1.83;;;1.40;;
24137;SDS011;17947;50.672;6.076;2022-11-04T15:05:36;3.22;;;1.40;;
24137;SDS011;17947;50.672;6.076;2022-11-04T15:10:48;2.72;;;1.38;;
24137;SDS011;17947;50.672;6.076;2022-11-04T15:13:17;2.22;;;1.30;;
24137;SDS011;17947;50.672;6.076;2022-11-04T15:15:43;1.30;;;1.20;;
24137;SDS011;17947;50.672;6.076;2022-11-04T15:18:13;3.50;;;1.40;;
24137;SDS011;17947;50.672;6.076;2022-11-04T15:20:43;1.52;;;1.27;;
24137;SDS011;17947;50.672;6.076;2022-11-04T15:23:11;2.08;;;1.30;;
24137;SDS011;17947;50.672;6.076;2022-11-04T15:25:48;1.33;;;1.15;;
24137;SDS011;17947;50.672;6.076;2022-11-04T15:28:21;2.13;;;1.20;;
24137;SDS011;17947;50.672;6.076;2022-11-04T15:30:58;1.85;;;1.30;;
24137;SDS011;17947;50.672;6.076;2022-11-04T15:33:24;3.20;;;1.50;;
24137;SDS011;17947;50.672;6.076;2022-11-04T15:35:51;1.88;;;1.55;;
24137;SDS011;17947;50.672;6.076;2022-11-04T15:38:17;1.70;;;1.40;;
24137;SDS011;17947;50.672;6.076;2022-11-04T15:40:44;2.33;;;1.50;;
24137;SDS011;17947;50.672;6.076;2022-11-04T15:43:10;2.25;;;1.20;;
24137;SDS011;17947;50.672;6.076;2022-11-04T15:48:30;2.35;;;1.30;;
24137;SDS011;17947;50.672;6.076;2022-11-04T15:51:15;2.40;;;1.08;;
24137;SDS011;17947;50.672;6.076;2022-11-04T15:53:47;2.95;;;1.20;;
24137;SDS011;17947;50.672;6.076;2022-11-04T15:56:15;1.48;;;1.08;;
24137;SDS011;17947;50.672;6.076;2022-11-04T15:58:43;1.45;;;1.20;;
24137;SDS011;17947;50.672;6.076;2022-11-04T16:01:11;1.90;;;1.30;;
24137;SDS011;17947;50.672;6.076;2022-11-04T16:03:38;2.92;;;1.20;;
24137;SDS011;17947;50.672;6.076;2022-11-04T16:06:06;1.95;;;1.30;;
24137;SDS011;17947;50.672;6.076;2022-11-04T16:08:33;2.40;;;1.17;;
24137;SDS011;17947;50.672;6.076;2022-11-04T16:11:16;2.33;;;1.23;;
24137;SDS011;17947;50.672;6.076;2022-11-04T16:13:42;1.10;;;0.88;;
24137;SDS011;17947;50.672;6.076;2022-11-04T16:16:24;1.08;;;0.93;;
24137;SDS011;17947;50.672;6.076;2022-11-04T16:18:56;1.45;;;1.02;;
24137;SDS011;17947;50.672;6.076;2022-11-04T16:21:26;2.35;;;1.15;;
24137;SDS011;17947;50.672;6.076;2022-11-04T16:24:04;1.83;;;1.13;;
24137;SDS011;17947;50.672;6.076;2022-11-04T16:26:36;2.40;;;1.10;;
24137;SDS011;17947;50.672;6.076;2022-11-04T16:29:06;1.30;;;1.10;;
24137;SDS011;17947;50.672;6.076;2022-11-04T16:31:34;1.13;;;1.05;;
24137;SDS011;17947;50.672;6.076;2022-11-04T16:34:00;1.50;;;0.90;;
24137;SDS011;17947;50.672;6.076;2022-11-04T16:36:26;1.48;;;1.08;;
24137;SDS011;17947;50.672;6.076;2022-11-04T16:38:56;1.15;;;1.02;;
24137;SDS011;17947;50.672;6.076;2022-11-04T16:41:23;1.88;;;1.23;;
24137;SDS011;17947;50.672;6.076;2022-11-04T16:43:49;2.10;;;1.13;;
24137;SDS011;17947;50.672;6.076;2022-11-04T16:46:16;2.78;;;1.20;;
24137;SDS011;17947;50.672;6.076;2022-11-04T16:48:42;1.63;;;1.13;;
24137;SDS011;17947;50.672;6.076;2022-11-04T16:51:19;2.17;;;1.00;;
24137;SDS011;17947;50.672;6.076;2022-11-04T16:53:49;1.88;;;1.10;;
24137;SDS011;17947;50.672;6.076;2022-11-04T16:56:16;2.83;;;1.10;;
24137;SDS011;17947;50.672;6.076;2022-11-04T16:58:42;1.52;;;1.05;;
24137;SDS011;17947;50.672;6.076;2022-11-04T17:01:12;1.50;;;1.20;;
24137;SDS011;17947;50.672;6.076;2022-11-04T17:03:38;1.55;;;1.10;;
24137;SDS011;17947;50.672;6.076;2022-11-04T17:06:05;1.77;;;1.10;;
24137;SDS011;17947;50.672;6.076;2022-11-04T17:08:31;1.15;;;0.90;;
24137;SDS011;17947;50.672;6.076;2022-11-04T17:10:57;1.33;;;1.02;;
24137;SDS011;17947;50.672;6.076;2022-11-04T17:13:23;1.63;;;1.10;;
24137;SDS011;17947;50.672;6.076;2022-11-04T17:15:49;2.08;;;1.25;;
24137;SDS011;17947;50.672;6.076;2022-11-04T17:18:15;1.42;;;1.10;;
24137;SDS011;17947;50.672;6.076;2022-11-04T17:20:43;1.30;;;1.17;;
24137;SDS011;17947;50.672;6.076;2022-11-04T17:23:12;1.83;;;1.15;;
24137;SDS011;17947;50.672;6.076;2022-11-04T17:25:39;1.88;;;1.15;;
24137;SDS011;17947;50.672;6.076;2022-11-04T17:28:06;1.25;;;1.10;;
24137;SDS011;17947;50.672;6.076;2022-11-04T17:30:32;1.88;;;1.20;;